Time;durP1;ratioP1;P1;durP2;ratioP2;P2;SDS_P1;SDS_P2;PMS_P1;PMS_P2;Temp;Humidity;BMP_temperature;BMP_pressure;BME280_temperature;BME280_humidity;BME280_pressure;Samples;Min_cycle;Max_cycle;Signal;HPM_P1;HPM_P2
2023/05/23 00:00:54;;;;;;;9.18;4.65;;;17.10;99.90;;;;;;4176496;28;20041;-61
2023/05/23 00:02:55;;;;;;;5.18;3.95;;;17.10;99.90;;;;;;4176658;28;20442;-61
2023/05/23 00:04:57;;;;;;;7.75;4.00;;;17.00;99.90;;;;;;4177705;28;20108;-67
2023/05/23 00:06:57;;;;;;;6.45;3.88;;;17.00;99.90;;;;;;4172039;28;20056;-61
2023/05/23 00:08:58;;;;;;;4.68;3.50;;;16.90;99.90;;;;;;4177620;28;20087;-61
2023/05/23 00:10:59;;;;;;;5.65;3.35;;;16.90;99.90;;;;;;4176454;28;20071;-61
2023/05/23 00:12:59;;;;;;;4.82;3.20;;;16.90;99.90;;;;;;4177737;28;20392;-61
2023/05/23 00:15:00;;;;;;;5.82;2.50;;;16.90;99.90;;;;;;4177451;28;20036;-61
2023/05/23 00:17:00;;;;;;;3.38;2.75;;;16.90;99.90;;;;;;4177057;28;20041;-61
2023/05/23 00:19:04;;;;;;;3.50;2.92;;;16.90;99.90;;;;;;4177307;28;20059;-61
2023/05/23 00:21:04;;;;;;;4.50;2.88;;;16.80;99.90;;;;;;4174324;28;24926;-61
2023/05/23 00:23:06;;;;;;;4.57;2.97;;;16.80;99.90;;;;;;4177769;28;20128;-61
2023/05/23 00:25:10;;;;;;;4.03;2.85;;;16.80;99.90;;;;;;4176220;28;20048;-61
2023/05/23 00:27:11;;;;;;;3.50;2.90;;;16.80;99.90;;;;;;4177766;28;20029;-61
2023/05/23 00:29:15;;;;;;;6.13;3.55;;;16.80;99.90;;;;;;4176303;28;20036;-61
2023/05/23 00:31:16;;;;;;;3.88;3.30;;;16.80;99.90;;;;;;4176215;28;20052;-62
2023/05/23 00:33:20;;;;;;;4.80;3.30;;;16.80;99.90;;;;;;4176303;28;20029;-61
2023/05/23 00:35:22;;;;;;;7.05;3.40;;;16.80;99.90;;;;;;4175555;28;20338;-61
2023/05/23 00:37:23;;;;;;;6.03;3.47;;;16.80;99.90;;;;;;4178128;28;20384;-61
2023/05/23 00:39:23;;;;;;;4.65;3.35;;;16.80;99.90;;;;;;4177397;28;20037;-61
2023/05/23 00:41:25;;;;;;;7.03;3.92;;;16.80;99.90;;;;;;4176087;28;20040;-61
2023/05/23 00:43:26;;;;;;;5.13;3.53;;;16.80;99.90;;;;;;4177176;28;20045;-62
2023/05/23 00:45:27;;;;;;;6.35;3.70;;;16.80;99.90;;;;;;4175597;28;20048;-61
2023/05/23 00:47:28;;;;;;;8.57;3.90;;;16.70;99.90;;;;;;4176267;28;20029;-61
2023/05/23 00:49:29;;;;;;;5.63;4.13;;;16.70;99.90;;;;;;4176309;28;20048;-62
2023/05/23 00:51:30;;;;;;;5.18;3.58;;;16.70;99.90;;;;;;4177098;28;20033;-61
2023/05/23 00:53:32;;;;;;;5.53;4.35;;;16.70;99.90;;;;;;4176885;28;20033;-61
2023/05/23 00:55:33;;;;;;;6.30;4.20;;;16.70;99.90;;;;;;4176090;28;20472;-61
2023/05/23 00:57:34;;;;;;;5.95;3.88;;;16.60;99.90;;;;;;4177116;28;20025;-61
2023/05/23 00:59:36;;;;;;;5.93;3.78;;;16.60;99.90;;;;;;4176563;28;20040;-61
2023/05/23 01:01:37;;;;;;;4.32;3.20;;;16.60;99.90;;;;;;4175259;28;20025;-61
2023/05/23 01:03:37;;;;;;;3.88;3.33;;;16.60;99.90;;;;;;4176932;28;20048;-61
2023/05/23 01:05:39;;;;;;;7.00;3.70;;;16.60;99.90;;;;;;4176065;28;20040;-61
2023/05/23 01:07:40;;;;;;;5.20;3.53;;;16.70;99.90;;;;;;4176169;28;20118;-61
2023/05/23 01:09:41;;;;;;;5.03;3.70;;;16.60;99.90;;;;;;4176154;28;20392;-61
2023/05/23 01:12:00;;;;;;;5.75;3.92;;;16.60;99.90;;;;;;4175892;28;20033;-61
2023/05/23 01:14:08;;;;;;;5.55;3.88;;;16.60;99.90;;;;;;4173867;28;20021;-61
2023/05/23 01:16:37;;;;;;;5.30;3.80;;;16.60;99.90;;;;;;4173748;28;20064;-60
2023/05/23 01:19:04;;;;;;;4.55;3.78;;;16.60;99.90;;;;;;4174613;28;20049;-61
2023/05/23 01:21:32;;;;;;;6.25;3.88;;;16.50;99.90;;;;;;4175115;28;20060;-61
2023/05/23 01:23:54;;;;;;;5.13;3.42;;;16.50;99.90;;;;;;4174256;28;20123;-61
2023/05/23 01:26:07;;;;;;;6.60;3.55;;;16.60;99.90;;;;;;4175242;28;20483;-61
2023/05/23 01:28:11;;;;;;;6.55;3.80;;;16.60;99.90;;;;;;4175135;28;20021;-61
2023/05/23 01:30:12;;;;;;;5.28;3.72;;;16.60;99.90;;;;;;4174696;28;20043;-62
2023/05/23 01:32:15;;;;;;;5.43;3.83;;;16.60;99.90;;;;;;4175458;28;20120;-61
2023/05/23 01:34:17;;;;;;;4.57;3.70;;;16.60;99.90;;;;;;4176101;28;20044;-61
2023/05/23 01:36:18;;;;;;;;;;;16.60;99.90;;;;;;4175521;28;20021;-61
2023/05/23 01:38:18;;;;;;;4.50;3.58;;;16.60;99.90;;;;;;4176211;28;19995;-61
2023/05/23 01:40:20;;;;;;;6.75;3.60;;;16.60;99.90;;;;;;4175884;28;20041;-61
2023/05/23 01:42:21;;;;;;;6.18;3.92;;;16.70;99.90;;;;;;4175858;28;20037;-61
2023/05/23 01:44:22;;;;;;;8.15;3.80;;;16.60;99.90;;;;;;4176274;28;20021;-61
2023/05/23 01:46:23;;;;;;;5.85;4.85;;;16.70;99.90;;;;;;4173633;28;20036;-61
2023/05/23 01:48:26;;;;;;;9.10;4.90;;;16.60;99.90;;;;;;4175638;28;20558;-60
2023/05/23 01:50:27;;;;;;;7.00;4.10;;;16.60;99.90;;;;;;4175061;28;20037;-63
2023/05/23 01:52:28;;;;;;;8.65;4.32;;;16.60;99.90;;;;;;4176301;28;20510;-61
2023/05/23 01:54:31;;;;;;;4.90;3.67;;;16.60;99.90;;;;;;4175839;28;20045;-61
2023/05/23 01:56:32;;;;;;;7.25;4.47;;;16.60;99.90;;;;;;4173273;28;20045;-62
2023/05/23 01:58:32;;;;;;;6.32;4.20;;;16.60;99.90;;;;;;4175759;28;20036;-61
2023/05/23 02:00:33;;;;;;;6.45;4.35;;;16.60;99.90;;;;;;4174085;28;20381;-61
2023/05/23 02:02:34;;;;;;;6.03;4.60;;;16.70;99.90;;;;;;4170478;28;20040;-61
2023/05/23 02:04:35;;;;;;;9.73;5.22;;;16.60;99.90;;;;;;4176360;28;20033;-61
2023/05/23 02:06:35;;;;;;;6.70;4.85;;;16.60;99.90;;;;;;4175223;28;20033;-61
2023/05/23 02:08:36;;;;;;;6.85;4.38;;;16.50;99.90;;;;;;4173488;28;20037;-61
2023/05/23 02:10:36;;;;;;;7.22;4.68;;;16.60;99.90;;;;;;4173943;28;20040;-60
2023/05/23 02:12:37;;;;;;;6.47;4.82;;;16.60;99.90;;;;;;4175652;28;20036;-61
2023/05/23 02:14:38;;;;;;;8.95;5.32;;;16.60;99.90;;;;;;4174629;28;20083;-61
2023/05/23 02:16:39;;;;;;;11.40;5.88;;;16.60;99.90;;;;;;4174194;28;20033;-61
2023/05/23 02:18:39;;;;;;;9.43;5.50;;;16.60;99.90;;;;;;4176224;28;20044;-61
2023/05/23 02:20:40;;;;;;;9.90;5.70;;;16.60;99.90;;;;;;4175189;28;20108;-61
2023/05/23 02:22:40;;;;;;;10.15;5.30;;;16.60;99.90;;;;;;4191839;28;20028;-61
2023/05/23 02:24:41;;;;;;;8.30;4.93;;;16.60;99.90;;;;;;4175215;28;20098;-61
2023/05/23 02:26:42;;;;;;;8.43;5.55;;;16.60;99.90;;;;;;4175127;28;20036;-61
2023/05/23 02:28:42;;;;;;;9.55;6.00;;;16.50;99.90;;;;;;4176124;28;20026;-61
2023/05/23 02:30:43;;;;;;;15.38;6.38;;;16.50;99.90;;;;;;4174590;28;20033;-61
2023/05/23 02:32:43;;;;;;;10.52;6.10;;;16.50;99.90;;;;;;4176067;28;20032;-61
2023/05/23 02:34:49;;;;;;;13.32;6.82;;;16.40;99.90;;;;;;4175639;28;20029;-61
2023/05/23 02:36:50;;;;;;;13.77;6.10;;;16.40;99.90;;;;;;4172883;28;20496;-61
2023/05/23 02:38:51;;;;;;;14.18;7.43;;;16.30;99.90;;;;;;4175582;28;20040;-60
2023/05/23 02:40:52;;;;;;;11.95;6.25;;;16.30;99.90;;;;;;4174656;28;20422;-61
2023/05/23 02:42:56;;;;;;;16.80;7.10;;;16.20;99.90;;;;;;4175417;28;20025;-61
2023/05/23 02:44:56;;;;;;;11.02;6.05;;;16.20;99.90;;;;;;4174345;28;20037;-61
2023/05/23 02:46:57;;;;;;;9.48;5.43;;;16.20;99.90;;;;;;4173228;28;20025;-60
2023/05/23 02:48:57;;;;;;;8.80;5.28;;;16.20;99.90;;;;;;4175741;28;20060;-67
2023/05/23 02:50:58;;;;;;;10.18;4.82;;;16.20;99.90;;;;;;4174106;28;20049;-62
2023/05/23 02:52:58;;;;;;;10.07;5.13;;;16.20;99.90;;;;;;4175355;28;20057;-61
2023/05/23 02:54:59;;;;;;;12.40;5.93;;;16.20;99.90;;;;;;4175263;28;20029;-61
2023/05/23 02:57:00;;;;;;;11.60;5.15;;;16.20;99.90;;;;;;4174761;28;20392;-61
2023/05/23 02:59:00;;;;;;;10.07;5.38;;;16.20;99.90;;;;;;4175709;28;20029;-61
2023/05/23 03:01:02;;;;;;;11.15;6.05;;;16.10;99.90;;;;;;4174627;28;20752;-61
2023/05/23 03:03:02;;;;;;;7.90;4.57;;;16.10;99.90;;;;;;4174611;28;20037;-61
2023/05/23 03:05:05;;;;;;;9.27;5.28;;;16.10;99.90;;;;;;4175969;28;20033;-61
2023/05/23 03:07:05;;;;;;;10.32;5.60;;;16.10;99.90;;;;;;4174763;28;20025;-61
2023/05/23 03:09:06;;;;;;;11.35;5.15;;;16.20;99.90;;;;;;4173125;28;20964;-60
2023/05/23 03:11:07;;;;;;;7.43;4.70;;;16.10;99.90;;;;;;4175373;28;21091;-61
2023/05/23 03:13:07;;;;;;;7.60;4.28;;;16.20;99.90;;;;;;4179023;28;20037;-61
2023/05/23 03:15:09;;;;;;;6.45;4.28;;;16.20;99.90;;;;;;4178446;28;20021;-62
2023/05/23 03:17:12;;;;;;;7.70;4.65;;;16.20;99.90;;;;;;4176736;28;20033;-61
2023/05/23 03:19:12;;;;;;;7.60;4.10;;;16.20;99.90;;;;;;4179115;28;20045;-61
2023/05/23 03:21:13;;;;;;;6.10;4.43;;;16.20;99.90;;;;;;4177846;28;20037;-61
2023/05/23 03:23:14;;;;;;;10.05;4.60;;;16.20;99.90;;;;;;4177929;28;20045;-61
2023/05/23 03:25:15;;;;;;;8.18;4.55;;;16.30;99.90;;;;;;4175699;28;20776;-61
2023/05/23 03:27:16;;;;;;;8.48;4.85;;;16.30;99.90;;;;;;4178635;28;20046;-61
2023/05/23 03:29:16;;;;;;;11.23;5.50;;;16.30;99.90;;;;;;4178705;28;20090;-61
2023/05/23 03:31:17;;;;;;;12.27;6.00;;;16.20;99.90;;;;;;4176798;28;22991;-61
2023/05/23 03:33:17;;;;;;;10.35;5.47;;;16.20;99.90;;;;;;4176341;28;20039;-63
2023/05/23 03:35:18;;;;;;;10.95;5.85;;;16.20;99.90;;;;;;4177434;28;20041;-61
2023/05/23 03:37:19;;;;;;;11.77;6.10;;;16.10;99.90;;;;;;4176937;28;20036;-62
2023/05/23 03:39:20;;;;;;;10.10;5.45;;;16.00;99.90;;;;;;4175682;28;20026;-61
2023/05/23 03:41:20;;;;;;;16.65;5.78;;;15.90;99.90;;;;;;4176437;28;20158;-61
2023/05/23 03:43:21;;;;;;;11.02;6.00;;;15.90;99.90;;;;;;4177804;28;20025;-61
2023/05/23 03:45:21;;;;;;;10.48;5.55;;;15.90;99.90;;;;;;4175435;28;20289;-61
2023/05/23 03:47:25;;;;;;;8.52;5.30;;;16.00;99.90;;;;;;4175892;28;20029;-61
2023/05/23 03:49:26;;;;;;;10.25;5.80;;;16.00;99.90;;;;;;4176149;28;20155;-61
2023/05/23 03:51:27;;;;;;;11.68;5.72;;;16.00;99.90;;;;;;4176267;28;20048;-61
2023/05/23 03:53:28;;;;;;;13.57;5.78;;;16.00;99.90;;;;;;4176593;28;20494;-61
2023/05/23 03:55:31;;;;;;;13.80;6.30;;;16.00;99.90;;;;;;4175571;28;20036;-62
2023/05/23 03:57:31;;;;;;;9.07;5.35;;;16.00;99.90;;;;;;4175950;28;20393;-61
2023/05/23 03:59:32;;;;;;;10.23;5.63;;;16.00;99.90;;;;;;4177220;28;20029;-61
2023/05/23 04:01:33;;;;;;;9.32;5.55;;;15.90;99.90;;;;;;4175656;28;20025;-61
2023/05/23 04:03:33;;;;;;;10.70;5.40;;;16.00;99.90;;;;;;4176301;28;20033;-61
2023/05/23 04:05:34;;;;;;;12.32;5.80;;;16.00;99.90;;;;;;4175918;28;20029;-61
2023/05/23 04:07:35;;;;;;;7.88;4.90;;;16.00;99.90;;;;;;4177571;28;20025;-61
2023/05/23 04:09:36;;;;;;;11.75;6.35;;;16.00;99.90;;;;;;4176090;28;20075;-61
2023/05/23 04:11:36;;;;;;;8.63;5.07;;;16.00;99.90;;;;;;4176490;28;20029;-60
2023/05/23 04:13:37;;;;;;;10.43;5.60;;;16.00;99.90;;;;;;4176827;28;20053;-61
2023/05/23 04:15:38;;;;;;;9.25;5.45;;;16.00;99.90;;;;;;4176590;28;20028;-61
2023/05/23 04:17:39;;;;;;;11.13;5.38;;;16.00;99.90;;;;;;4176267;28;20033;-61
2023/05/23 04:19:39;;;;;;;9.73;5.45;;;16.00;99.90;;;;;;4176980;28;20049;-61
2023/05/23 04:21:40;;;;;;;10.63;5.72;;;16.00;99.90;;;;;;4175187;28;20969;-61
2023/05/23 04:23:40;;;;;;;8.75;5.03;;;16.00;99.90;;;;;;4177206;28;20033;-61
2023/05/23 04:25:41;;;;;;;11.10;6.15;;;16.00;99.90;;;;;;4175590;28;20032;-61
2023/05/23 04:27:41;;;;;;;9.20;5.20;;;15.90;99.90;;;;;;4177247;28;20033;-61
2023/05/23 04:29:43;;;;;;;8.35;4.85;;;15.90;99.90;;;;;;4177239;28;20558;-61
2023/05/23 04:31:44;;;;;;;9.85;6.05;;;15.90;99.90;;;;;;4174103;28;20396;-61
2023/05/23 04:33:45;;;;;;;10.60;6.53;;;15.90;99.90;;;;;;4175942;28;20079;-61
2023/05/23 04:35:45;;;;;;;7.57;5.38;;;15.80;99.90;;;;;;4176275;28;20033;-61
2023/05/23 04:37:46;;;;;;;13.15;6.32;;;15.80;99.90;;;;;;4176902;28;20029;-61
2023/05/23 04:39:47;;;;;;;7.63;5.28;;;15.80;99.90;;;;;;4177186;28;20036;-61
2023/05/23 04:41:48;;;;;;;10.68;5.78;;;15.80;99.90;;;;;;4176690;28;20033;-61
2023/05/23 04:43:53;;;;;;;10.25;5.60;;;15.80;99.90;;;;;;4175669;28;20082;-61
2023/05/23 04:45:53;;;;;;;9.00;5.50;;;15.90;99.90;;;;;;4174326;28;20063;-61
2023/05/23 04:47:55;;;;;;;11.85;6.15;;;15.90;99.90;;;;;;4176097;28;20032;-60
2023/05/23 04:49:56;;;;;;;13.18;6.03;;;15.90;99.90;;;;;;4177506;28;20041;-61
2023/05/23 04:51:56;;;;;;;10.02;5.97;;;15.90;99.90;;;;;;4176181;28;20036;-61
2023/05/23 04:53:57;;;;;;;15.00;6.85;;;15.90;99.90;;;;;;4176763;28;20112;-61
2023/05/23 04:55:58;;;;;;;11.43;6.40;;;15.90;99.90;;;;;;4176059;28;20484;-61
2023/05/23 04:57:59;;;;;;;10.45;6.32;;;15.90;99.90;;;;;;4174753;28;20127;-61
2023/05/23 05:00:00;;;;;;;11.27;5.93;;;15.90;99.90;;;;;;4175012;28;20037;-62
2023/05/23 05:02:01;;;;;;;14.88;7.15;;;15.90;99.90;;;;;;4173909;28;20035;-62
2023/05/23 05:04:01;;;;;;;13.63;6.25;;;15.90;99.90;;;;;;4177030;28;20063;-61
2023/05/23 05:06:03;;;;;;;11.95;6.72;;;15.90;99.90;;;;;;4174813;28;20041;-61
2023/05/23 05:08:03;;;;;;;10.20;6.13;;;15.90;99.90;;;;;;4175180;28;20045;-60
2023/05/23 05:10:05;;;;;;;10.02;5.95;;;15.80;99.90;;;;;;4175595;28;20056;-62
2023/05/23 05:12:05;;;;;;;10.95;6.40;;;15.80;99.90;;;;;;4173536;28;20502;-61
2023/05/23 05:14:06;;;;;;;9.75;6.13;;;15.90;99.90;;;;;;4176057;28;20047;-61
2023/05/23 05:16:07;;;;;;;8.55;5.55;;;15.90;99.90;;;;;;4172888;28;20123;-61
2023/05/23 05:18:07;;;;;;;11.07;6.28;;;15.90;99.90;;;;;;4168306;28;20045;-61
2023/05/23 05:20:09;;;;;;;11.27;6.18;;;15.80;99.90;;;;;;4172001;28;20052;-60
2023/05/23 05:22:10;;;;;;;10.73;5.85;;;15.90;99.90;;;;;;4172002;28;20037;-61
2023/05/23 05:24:11;;;;;;;10.18;4.95;;;15.80;99.90;;;;;;4174969;28;20041;-61
2023/05/23 05:26:12;;;;;;;11.82;5.78;;;15.90;99.90;;;;;;4175294;28;20049;-61
2023/05/23 05:28:12;;;;;;;10.77;5.28;;;15.90;99.90;;;;;;4176650;28;20037;-61
2023/05/23 05:30:13;;;;;;;10.43;5.70;;;15.90;99.90;;;;;;4171946;28;20163;-61
2023/05/23 05:32:14;;;;;;;8.68;5.00;;;16.00;99.90;;;;;;4173030;28;20048;-63
2023/05/23 05:34:14;;;;;;;7.75;4.55;;;16.00;99.90;;;;;;4173847;28;20404;-63
2023/05/23 05:36:15;;;;;;;6.60;4.43;;;16.00;99.90;;;;;;4174685;28;20399;-63
2023/05/23 05:38:16;;;;;;;6.53;4.30;;;16.00;99.90;;;;;;4172230;28;20052;-63
2023/05/23 05:40:17;;;;;;;6.32;3.85;;;16.00;99.90;;;;;;4171532;28;20025;-63
2023/05/23 05:42:17;;;;;;;5.25;3.78;;;16.10;99.90;;;;;;4166800;28;20036;-63
2023/05/23 05:44:18;;;;;;;8.82;4.68;;;16.10;99.90;;;;;;4172264;28;20025;-63
2023/05/23 05:46:19;;;;;;;6.68;4.22;;;16.10;99.90;;;;;;4170551;28;20138;-63
2023/05/23 05:48:19;;;;;;;9.13;4.93;;;16.10;99.90;;;;;;4175499;28;20063;-63
2023/05/23 05:50:20;;;;;;;9.55;5.35;;;16.10;99.90;;;;;;4173739;28;20041;-64
2023/05/23 05:52:21;;;;;;;7.45;4.43;;;16.10;99.90;;;;;;4173504;28;20044;-64
2023/05/23 05:54:22;;;;;;;7.85;4.15;;;16.20;99.90;;;;;;4174732;28;20048;-63
2023/05/23 05:56:23;;;;;;;9.68;4.63;;;16.20;99.90;;;;;;4173715;28;20037;-63
2023/05/23 05:58:23;;;;;;;11.43;5.55;;;16.20;99.90;;;;;;4175273;28;20110;-63
2023/05/23 06:00:24;;;;;;;7.53;4.80;;;16.20;99.90;;;;;;4173597;28;21254;-63
2023/05/23 06:02:25;;;;;;;7.57;4.22;;;16.20;99.90;;;;;;4174070;28;20087;-63
2023/05/23 06:04:26;;;;;;;11.25;5.15;;;16.20;99.90;;;;;;4174688;28;20073;-63
2023/05/23 06:06:26;;;;;;;8.93;4.85;;;16.20;99.90;;;;;;4175630;28;20041;-63
2023/05/23 06:08:27;;;;;;;8.10;4.60;;;16.20;99.90;;;;;;4172118;28;20045;-63
2023/05/23 06:10:27;;;;;;;9.68;5.15;;;16.20;99.90;;;;;;4172380;28;20044;-63
2023/05/23 06:12:28;;;;;;;9.63;5.03;;;16.20;99.90;;;;;;4170192;28;20110;-63
2023/05/23 06:14:28;;;;;;;7.90;5.20;;;16.20;99.90;;;;;;4175316;28;20118;-63
2023/05/23 06:16:29;;;;;;;7.68;4.43;;;16.20;99.90;;;;;;4170785;28;20036;-63
2023/05/23 06:18:30;;;;;;;10.30;5.32;;;16.10;99.90;;;;;;4174279;28;20390;-63
2023/05/23 06:20:30;;;;;;;8.20;4.25;;;16.10;99.90;;;;;;4170740;28;20048;-63
2023/05/23 06:22:31;;;;;;;6.13;4.60;;;16.10;99.90;;;;;;4174146;28;20033;-63
2023/05/23 06:24:31;;;;;;;7.97;4.53;;;16.10;99.90;;;;;;4172626;28;20506;-63
2023/05/23 06:26:32;;;;;;;8.98;4.70;;;16.10;99.90;;;;;;4171028;28;20033;-63
2023/05/23 06:28:33;;;;;;;13.52;5.35;;;16.20;99.90;;;;;;4174564;28;20047;-63
2023/05/23 06:30:35;;;;;;;7.60;4.30;;;16.20;99.90;;;;;;4170719;28;20037;-65
2023/05/23 06:32:35;;;;;;;8.82;4.35;;;16.20;99.90;;;;;;4171589;28;20040;-63
2023/05/23 06:34:36;;;;;;;8.95;4.93;;;16.30;99.90;;;;;;4174270;28;20107;-63
2023/05/23 06:36:36;;;;;;;7.30;4.60;;;16.30;99.90;;;;;;4173008;28;20047;-63
2023/05/23 06:38:37;;;;;;;7.53;4.38;;;16.30;99.90;;;;;;4173299;28;20077;-63
2023/05/23 06:40:38;;;;;;;9.57;5.38;;;16.20;99.90;;;;;;4171808;28;20036;-63
2023/05/23 06:42:38;;;;;;;9.75;4.93;;;16.20;99.90;;;;;;4174267;28;20531;-63
2023/05/23 06:44:39;;;;;;;8.02;5.13;;;16.20;99.90;;;;;;4173922;28;20116;-63
2023/05/23 06:46:44;;;;;;;11.45;5.65;;;16.20;99.90;;;;;;4173900;28;20044;-63
2023/05/23 06:48:44;;;;;;;9.95;4.95;;;16.20;99.90;;;;;;4173516;28;20112;-63
2023/05/23 06:50:45;;;;;;;9.43;4.78;;;16.30;99.90;;;;;;4174295;28;20118;-63
2023/05/23 06:52:45;;;;;;;11.35;5.97;;;16.20;99.90;;;;;;4176292;28;20025;-63
2023/05/23 06:54:46;;;;;;;11.07;5.57;;;16.20;99.90;;;;;;4176854;28;20041;-63
2023/05/23 06:56:47;;;;;;;10.75;5.18;;;16.20;99.90;;;;;;4167988;28;20037;-72
2023/05/23 06:58:47;;;;;;;10.57;5.57;;;16.10;99.90;;;;;;4176842;28;20408;-70
2023/05/23 07:00:48;;;;;;;11.30;5.25;;;16.10;99.90;;;;;;4173919;28;20114;-70
2023/05/23 07:02:48;;;;;;;17.35;6.28;;;16.10;99.90;;;;;;4171884;28;20388;-70
2023/05/23 07:04:49;;;;;;;13.38;6.57;;;16.10;99.90;;;;;;4175293;28;20029;-70
2023/05/23 07:06:51;;;;;;;14.10;6.45;;;16.00;99.90;;;;;;4175135;28;20036;-71
2023/05/23 07:08:52;;;;;;;14.73;6.55;;;16.00;99.90;;;;;;4174718;28;20025;-72
2023/05/23 07:10:53;;;;;;;23.13;7.00;;;16.00;99.90;;;;;;4174809;28;20391;-70
2023/05/23 07:12:53;;;;;;;17.80;6.70;;;15.90;99.90;;;;;;4175993;28;20037;-70
2023/05/23 07:14:54;;;;;;;15.77;6.65;;;15.90;99.90;;;;;;4175329;28;20136;-71
2023/05/23 07:16:54;;;;;;;10.32;5.63;;;15.90;99.90;;;;;;4173160;28;20032;-71
2023/05/23 07:18:55;;;;;;;14.40;6.65;;;15.80;99.90;;;;;;4175184;28;20492;-70
2023/05/23 07:20:57;;;;;;;17.13;6.65;;;15.80;99.90;;;;;;4173301;28;20052;-71
2023/05/23 07:22:57;;;;;;;12.90;6.75;;;15.80;99.90;;;;;;4174205;28;20115;-71
2023/05/23 07:24:58;;;;;;;15.07;6.57;;;15.70;99.90;;;;;;4174583;28;20130;-71
2023/05/23 07:26:59;;;;;;;23.13;8.20;;;15.70;99.90;;;;;;4173946;28;20045;-71
2023/05/23 07:28:59;;;;;;;13.95;6.60;;;15.60;99.90;;;;;;4172297;28;20041;-71
2023/05/23 07:31:00;;;;;;;15.50;7.05;;;15.60;99.90;;;;;;4172282;28;20041;-71
2023/05/23 07:33:01;;;;;;;18.02;7.78;;;15.60;99.90;;;;;;4175032;28;20029;-70
2023/05/23 07:35:02;;;;;;;18.05;7.45;;;15.50;99.90;;;;;;4174103;28;20040;-70
2023/05/23 07:37:02;;;;;;;15.70;7.40;;;15.50;99.90;;;;;;4173562;28;20040;-71
2023/05/23 07:39:03;;;;;;;19.02;7.90;;;15.50;99.90;;;;;;4177780;28;20029;-71
2023/05/23 07:41:04;;;;;;;22.33;7.90;;;15.40;99.90;;;;;;4173559;28;20040;-70
2023/05/23 07:43:05;;;;;;;21.25;7.95;;;15.40;99.90;;;;;;4173487;28;20033;-68
2023/05/23 07:45:06;;;;;;;18.30;7.43;;;15.40;99.90;;;;;;4171301;28;20041;-71
2023/05/23 07:47:06;;;;;;;13.93;6.82;;;15.40;99.90;;;;;;4173324;28;20029;-71
2023/05/23 07:49:07;;;;;;;13.43;6.53;;;15.40;99.90;;;;;;4172088;28;20044;-71
2023/05/23 07:51:07;;;;;;;11.77;5.50;;;15.40;99.90;;;;;;4172556;28;20029;-71
2023/05/23 07:53:08;;;;;;;10.75;5.60;;;15.40;99.90;;;;;;4173104;28;20048;-71
2023/05/23 07:55:09;;;;;;;17.27;5.22;;;15.40;99.90;;;;;;4173146;28;20125;-72
2023/05/23 07:57:09;;;;;;;12.32;5.75;;;15.40;99.90;;;;;;4172853;28;20033;-71
2023/05/23 07:59:10;;;;;;;15.98;5.72;;;15.40;99.90;;;;;;4173327;28;20033;-71
2023/05/23 08:01:11;;;;;;;13.25;5.80;;;15.40;99.90;;;;;;4168960;28;20132;-71
2023/05/23 08:03:12;;;;;;;11.00;5.38;;;15.40;99.90;;;;;;4172810;28;20073;-71
2023/05/23 08:05:12;;;;;;;16.35;6.38;;;15.40;99.90;;;;;;4173133;28;20037;-71
2023/05/23 08:07:13;;;;;;;14.45;6.20;;;15.40;99.90;;;;;;4172740;28;20040;-71
2023/05/23 08:09:14;;;;;;;14.15;5.35;;;15.30;99.90;;;;;;4171679;28;20037;-71
2023/05/23 08:11:15;;;;;;;13.13;5.15;;;15.30;99.90;;;;;;4172551;28;20487;-71
2023/05/23 08:13:15;;;;;;;10.82;5.25;;;15.30;99.90;;;;;;4173463;28;20125;-72
2023/05/23 08:15:16;;;;;;;10.55;4.90;;;15.40;99.90;;;;;;4169800;28;20104;-71
2023/05/23 08:17:17;;;;;;;17.50;6.25;;;15.40;99.90;;;;;;4172587;28;20109;-71
2023/05/23 08:19:17;;;;;;;13.98;5.47;;;15.40;99.90;;;;;;4170801;28;20037;-72
2023/05/23 08:21:18;;;;;;;14.50;5.82;;;15.40;99.90;;;;;;4170196;28;20041;-72
2023/05/23 08:23:18;;;;;;;15.32;5.90;;;15.40;99.90;;;;;;4172303;28;20488;-72
2023/05/23 08:25:19;;;;;;;13.73;6.10;;;15.30;99.90;;;;;;4170105;28;20063;-72
2023/05/23 08:27:19;;;;;;;12.82;5.43;;;15.30;99.90;;;;;;4171375;28;20434;-72
2023/05/23 08:29:20;;;;;;;16.02;6.43;;;15.30;99.90;;;;;;4173670;28;20032;-72
2023/05/23 08:31:22;;;;;;;14.05;5.50;;;15.20;99.90;;;;;;4170585;28;20037;-71
2023/05/23 08:33:22;;;;;;;17.30;6.20;;;15.20;99.90;;;;;;4169649;28;20041;-70
2023/05/23 08:35:23;;;;;;;19.83;6.57;;;15.20;99.90;;;;;;4168630;28;20033;-71
2023/05/23 08:37:23;;;;;;;11.10;5.32;;;15.20;99.90;;;;;;4170812;28;20037;-71
2023/05/23 08:39:24;;;;;;;14.70;6.28;;;15.20;99.90;;;;;;4171644;28;20112;-72
2023/05/23 08:41:28;;;;;;;15.05;5.10;;;15.10;99.90;;;;;;4171063;28;20033;-72
2023/05/23 08:43:28;;;;;;;13.25;5.25;;;15.10;99.90;;;;;;4170973;28;20451;-72
2023/05/23 08:45:30;;;;;;;13.40;4.75;;;15.00;99.90;;;;;;4172339;28;20037;-72
2023/05/23 08:47:34;;;;;;;13.82;5.57;;;14.90;99.90;;;;;;4173076;28;20139;-72
2023/05/23 08:49:36;;;;;;;13.43;5.30;;;14.90;99.90;;;;;;4173916;28;20036;-72
2023/05/23 08:51:39;;;;;;;14.52;4.57;;;14.80;99.90;;;;;;4169754;28;20381;-72
2023/05/23 08:53:45;;;;;;;10.68;4.75;;;14.80;99.90;;;;;;4167088;28;20051;-72
2023/05/23 08:55:47;;;;;;;9.57;4.50;;;14.80;99.90;;;;;;4168653;28;20100;-72
2023/05/23 08:57:48;;;;;;;8.63;4.22;;;15.00;99.90;;;;;;4174636;28;20052;-73
2023/05/23 08:59:50;;;;;;;10.25;4.78;;;15.00;99.90;;;;;;4174191;28;20087;-72
2023/05/23 09:01:52;;;;;;;11.00;4.20;;;15.00;99.90;;;;;;4170830;28;20056;-73
2023/05/23 09:03:52;;;;;;;12.43;4.30;;;15.00;99.90;;;;;;4172180;28;20058;-69
2023/05/23 09:05:53;;;;;;;9.85;4.80;;;14.90;99.90;;;;;;4170902;28;20749;-72
2023/05/23 09:07:55;;;;;;;9.82;4.55;;;14.80;99.90;;;;;;4173138;28;20113;-73
2023/05/23 09:09:56;;;;;;;12.63;5.20;;;14.80;99.90;;;;;;4177038;28;20101;-73
2023/05/23 09:11:59;;;;;;;9.18;4.25;;;14.80;99.90;;;;;;4171438;28;20128;-73
2023/05/23 09:14:00;;;;;;;9.38;4.43;;;14.80;99.90;;;;;;4175199;28;20056;-72
2023/05/23 09:16:06;;;;;;;19.73;5.72;;;14.80;99.90;;;;;;4172005;28;20029;-73
2023/05/23 09:18:06;;;;;;;8.43;4.18;;;14.80;99.90;;;;;;4173866;28;20040;-73
2023/05/23 09:20:13;;;;;;;11.25;4.93;;;14.90;99.90;;;;;;4173644;28;20052;-74
2023/05/23 09:22:13;;;;;;;9.65;4.80;;;14.90;99.90;;;;;;4172311;28;20037;-73
2023/05/23 09:24:14;;;;;;;12.25;4.72;;;14.90;99.90;;;;;;4174373;28;20167;-72
2023/05/23 09:26:14;;;;;;;20.92;5.72;;;14.80;99.90;;;;;;4173514;28;20507;-73
2023/05/23 09:28:15;;;;;;;10.07;3.72;;;14.90;99.90;;;;;;4169627;28;20045;-73
2023/05/23 09:30:17;;;;;;;8.38;4.32;;;14.90;99.90;;;;;;4169696;28;20029;-72
2023/05/23 09:32:19;;;;;;;10.50;4.73;;;15.00;99.90;;;;;;4173776;28;20029;-72
2023/05/23 09:34:19;;;;;;;14.23;4.97;;;15.00;99.90;;;;;;4174159;28;20032;-71
2023/05/23 09:36:20;;;;;;;10.15;5.32;;;15.10;99.90;;;;;;4171581;28;20033;-72
2023/05/23 09:38:20;;;;;;;8.88;4.13;;;15.10;99.90;;;;;;4172704;28;20051;-72
2023/05/23 09:40:21;;;;;;;14.50;5.03;;;15.20;99.90;;;;;;4171607;28;20044;-72
2023/05/23 09:42:22;;;;;;;11.75;4.22;;;15.20;99.90;;;;;;4171662;28;20029;-72
2023/05/23 09:44:23;;;;;;;12.00;4.88;;;15.30;99.90;;;;;;4174336;28;20090;-72
2023/05/23 09:46:27;;;;;;;9.80;3.95;;;15.30;99.90;;;;;;4170767;28;20072;-71
2023/05/23 09:48:29;;;;;;;8.77;4.15;;;15.40;99.90;;;;;;4171811;28;20033;-71
2023/05/23 09:50:32;;;;;;;12.52;4.45;;;15.40;99.90;;;;;;4168282;28;20037;-71
2023/05/23 09:52:39;;;;;;;6.90;3.97;;;15.50;99.90;;;;;;4172326;28;20033;-71
2023/05/23 09:54:40;;;;;;;8.63;4.15;;;15.60;99.90;;;;;;4170379;28;20040;-71
2023/05/23 09:56:42;;;;;;;11.98;4.72;;;15.70;99.90;;;;;;4172760;28;20500;-71
2023/05/23 09:58:47;;;;;;;11.15;5.60;;;15.80;99.90;;;;;;4170395;28;20040;-71
2023/05/23 10:00:51;;;;;;;10.95;4.50;;;15.90;99.90;;;;;;4172778;28;20037;-71
2023/05/23 10:03:09;;;;;;;10.55;4.55;;;16.00;99.90;;;;;;4169492;28;20376;-71
2023/05/23 10:05:20;;;;;;;13.23;4.90;;;16.10;99.90;;;;;;4168845;28;20032;-72
2023/05/23 10:07:22;;;;;;;8.57;4.72;;;16.20;99.90;;;;;;4172092;28;20037;-72
2023/05/23 10:09:25;;;;;;;9.15;5.05;;;16.10;99.90;;;;;;4171366;28;20071;-72
2023/05/23 10:11:35;;;;;;;8.73;4.30;;;16.10;99.90;;;;;;4171721;28;20092;-72
2023/05/23 10:13:36;;;;;;;8.38;3.75;;;16.10;99.90;;;;;;4173627;28;20148;-72
2023/05/23 10:15:39;;;;;;;8.32;4.28;;;16.30;99.90;;;;;;4169645;28;20037;-72
2023/05/23 10:17:55;;;;;;;13.07;4.03;;;16.30;99.90;;;;;;4171062;28;20037;-72
2023/05/23 10:20:11;;;;;;;10.30;4.20;;;16.20;99.90;;;;;;4176914;28;20508;-71
2023/05/23 10:22:14;;;;;;;9.80;3.83;;;16.20;99.90;;;;;;4170912;28;20040;-72
2023/05/23 10:24:15;;;;;;;9.73;3.78;;;16.20;99.90;;;;;;4171580;28;21131;-71
2023/05/23 10:26:17;;;;;;;11.25;4.32;;;16.20;99.90;;;;;;4171094;28;20029;-70
2023/05/23 10:28:18;;;;;;;7.78;3.58;;;16.20;99.90;;;;;;4171094;28;20098;-70
2023/05/23 10:30:19;;;;;;;7.38;3.55;;;16.30;99.90;;;;;;4171087;28;20032;-70